createdAt,value
2018-05-24T00:01:00.492Z,17.14
2018-05-24T00:02:22.816Z,17.09
2018-05-24T00:03:23.461Z,17.06
2018-05-24T00:04:23.093Z,17.01
2018-05-24T00:05:22.953Z,16.99
2018-05-24T00:06:23.319Z,16.99
2018-05-24T00:07:22.833Z,16.97
2018-05-24T00:08:24.104Z,16.96
2018-05-24T00:09:44.259Z,16.91
2018-05-24T00:10:45.044Z,16.89
2018-05-24T00:11:45.253Z,16.86
2018-05-24T00:12:44.991Z,16.86
2018-05-24T00:14:05.920Z,16.84
2018-05-24T00:15:06.414Z,16.79
2018-05-24T00:16:28.155Z,16.78
2018-05-24T00:17:28.812Z,16.79
2018-05-24T00:18:28.282Z,16.78
2018-05-24T00:19:29.057Z,16.78
2018-05-24T00:20:29.295Z,16.78
2018-05-24T00:21:28.591Z,16.79
2018-05-24T00:22:29.110Z,16.79
2018-05-24T00:23:50.494Z,16.83
2018-05-24T00:24:51.151Z,16.83
2018-05-24T00:26:13.372Z,16.83
2018-05-24T00:27:36.342Z,16.81
2018-05-24T00:28:36.958Z,16.78
2018-05-24T00:29:36.913Z,16.76
2018-05-24T00:30:36.491Z,16.76
2018-05-24T00:31:36.966Z,16.75
2018-05-24T00:32:37.802Z,16.72
2018-05-24T00:34:20.268Z,16.74
2018-05-24T00:35:21.714Z,16.75
2018-05-24T00:36:20.407Z,16.72
2018-05-24T00:37:20.794Z,16.71
2018-05-24T00:38:20.203Z,16.74
2018-05-24T00:39:20.562Z,16.71
2018-05-24T00:40:20.960Z,16.71
2018-05-24T00:41:20.666Z,16.69
2018-05-24T00:42:21.118Z,16.68
2018-05-24T00:43:41.807Z,16.69
2018-05-24T00:44:42.654Z,16.68
2018-05-24T00:45:42.362Z,16.66
2018-05-24T00:46:42.078Z,16.61
2018-05-24T00:48:47.045Z,16.56
2018-05-24T00:50:08.656Z,16.50
2018-05-24T00:51:09.003Z,16.46
2018-05-24T00:52:29.503Z,16.42
2018-05-24T00:53:29.885Z,16.42
2018-05-24T00:54:30.090Z,16.39
2018-05-24T00:55:29.492Z,16.39
2018-05-24T00:56:30.092Z,16.35
2018-05-24T00:57:30.486Z,16.29
2018-05-24T00:58:29.914Z,16.29
2018-05-24T00:59:30.848Z,16.29
2018-05-24T01:00:31.801Z,16.28
2018-05-24T01:01:30.576Z,16.28
2018-05-24T01:02:30.445Z,16.23
2018-05-24T01:03:29.947Z,16.17
2018-05-24T01:04:30.626Z,16.13
2018-05-24T01:05:30.649Z,16.10
2018-05-24T01:06:31.978Z,16.08
2018-05-24T01:07:31.095Z,16.04
2018-05-24T01:08:30.175Z,16.02
2018-05-24T01:09:29.625Z,16.01
2018-05-24T01:10:30.269Z,16.00
2018-05-24T01:11:29.604Z,15.98
2018-05-24T01:12:30.443Z,15.97
2018-05-24T01:13:30.348Z,15.97
2018-05-24T01:14:30.483Z,15.97
2018-05-24T01:15:30.000Z,15.95
2018-05-24T01:16:29.652Z,15.91
2018-05-24T01:17:30.255Z,15.91
2018-05-24T01:18:29.789Z,15.92
2018-05-24T01:19:30.244Z,15.90
2018-05-24T01:20:29.854Z,15.88
2018-05-24T01:21:30.331Z,15.84
2018-05-24T01:22:51.980Z,15.79
2018-05-24T01:23:53.104Z,15.76
2018-05-24T01:25:13.304Z,15.73
2018-05-24T01:26:36.084Z,15.67
2018-05-24T01:27:36.794Z,15.62
2018-05-24T01:28:36.190Z,15.58
2018-05-24T01:29:37.358Z,15.57
2018-05-24T01:30:37.514Z,15.55
2018-05-24T01:31:36.905Z,15.52
2018-05-24T01:32:36.686Z,15.52
2018-05-24T01:33:36.661Z,15.49
2018-05-24T01:34:36.031Z,15.46
2018-05-24T01:35:36.762Z,15.44
2018-05-24T01:36:57.691Z,15.43
2018-05-24T01:37:58.261Z,15.39
2018-05-24T01:38:57.707Z,15.36
2018-05-24T01:39:58.148Z,15.35
2018-05-24T01:41:18.943Z,15.31
2018-05-24T01:42:19.627Z,15.27
2018-05-24T01:43:19.286Z,15.24
2018-05-24T01:44:18.900Z,15.22
2018-05-24T01:45:20.891Z,15.19
2018-05-24T01:46:19.789Z,15.18
2018-05-24T01:47:19.316Z,15.19
2018-05-24T01:48:19.770Z,15.19
2018-05-24T01:49:19.223Z,15.19
2018-05-24T01:50:19.663Z,15.18
2018-05-24T01:52:01.428Z,15.11
2018-05-24T01:53:02.123Z,15.10
2018-05-24T01:54:01.922Z,15.07
2018-05-24T01:55:23.807Z,15.00
2018-05-24T01:56:25.146Z,15.00
2018-05-24T01:57:24.260Z,14.97
2018-05-24T01:58:45.583Z,14.91
2018-05-24T02:00:07.597Z,14.88
2018-05-24T02:01:08.490Z,14.84
2018-05-24T02:02:08.469Z,14.82
2018-05-24T02:03:08.239Z,14.82
2018-05-24T02:04:07.654Z,14.79
2018-05-24T02:05:08.144Z,14.78
2018-05-24T02:06:30.342Z,14.81
2018-05-24T02:07:31.042Z,14.79
2018-05-24T02:08:51.808Z,14.82
2018-05-24T02:09:53.719Z,14.84
2018-05-24T02:10:52.219Z,14.86
2018-05-24T02:12:35.098Z,14.85
2018-05-24T02:13:36.971Z,14.85
2018-05-24T02:14:35.543Z,14.85
2018-05-24T02:15:35.135Z,14.86
2018-05-24T02:16:35.921Z,14.88
2018-05-24T02:17:35.607Z,14.88
2018-05-24T02:18:35.172Z,14.89
2018-05-24T02:19:35.682Z,14.88
2018-05-24T02:20:35.478Z,14.86
2018-05-24T02:21:35.031Z,14.86
2018-05-24T02:22:35.761Z,14.85
2018-05-24T02:23:35.650Z,14.86
2018-05-24T02:24:35.221Z,14.86
2018-05-24T02:25:35.696Z,14.88
2018-05-24T02:26:35.834Z,14.89
2018-05-24T02:27:35.522Z,14.89
2018-05-24T02:28:56.434Z,14.89
2018-05-24T02:29:57.123Z,14.89
2018-05-24T02:30:56.721Z,14.89
2018-05-24T02:31:57.052Z,14.89
2018-05-24T02:32:57.414Z,14.88
2018-05-24T02:33:56.933Z,14.88
2018-05-24T02:34:58.116Z,14.88
2018-05-24T02:35:56.797Z,14.85
2018-05-24T02:36:57.350Z,14.85
2018-05-24T02:38:18.439Z,14.84
2018-05-24T02:39:19.365Z,14.82
2018-05-24T02:40:40.184Z,14.82
2018-05-24T02:41:40.782Z,14.82
2018-05-24T02:42:40.424Z,14.82
2018-05-24T02:43:41.201Z,14.81
2018-05-24T02:45:45.049Z,14.82
2018-05-24T02:46:46.036Z,14.85
2018-05-24T02:47:45.563Z,14.84
2018-05-24T02:48:45.627Z,14.84
2018-05-24T02:49:45.471Z,14.81
2018-05-24T02:51:06.948Z,14.79
2018-05-24T02:52:06.578Z,14.79
2018-05-24T02:53:06.140Z,14.79
2018-05-24T02:54:29.815Z,14.79
2018-05-24T02:55:30.389Z,14.79
2018-05-24T02:56:30.946Z,14.79
2018-05-24T02:57:30.758Z,14.79
2018-05-24T02:58:30.385Z,14.84
2018-05-24T02:59:30.702Z,14.82
2018-05-24T03:00:30.626Z,14.84
2018-05-24T03:01:30.322Z,14.85
2018-05-24T03:03:13.953Z,14.85
2018-05-24T03:04:14.715Z,14.85
2018-05-24T03:05:14.183Z,14.85
2018-05-24T03:06:14.793Z,14.85
2018-05-24T03:08:01.198Z,14.82
2018-05-24T03:09:02.031Z,14.81
2018-05-24T03:10:01.522Z,14.79
2018-05-24T03:11:02.320Z,14.78
2018-05-24T03:12:02.008Z,14.77
2018-05-24T03:13:02.251Z,14.70
2018-05-24T03:14:23.660Z,14.69
2018-05-24T03:15:24.452Z,14.68
2018-05-24T03:16:23.965Z,14.68
2018-05-24T03:17:23.608Z,14.66
2018-05-24T03:18:24.501Z,14.65
2018-05-24T03:19:24.486Z,14.62
2018-05-24T03:20:24.317Z,14.59
2018-05-24T03:21:24.369Z,14.58
2018-05-24T03:22:24.187Z,14.55
2018-05-24T03:23:24.092Z,14.54
2018-05-24T03:24:45.146Z,14.51
2018-05-24T03:25:46.020Z,14.50
2018-05-24T03:26:46.492Z,14.47
2018-05-24T03:27:46.270Z,14.45
2018-05-24T03:28:46.000Z,14.44
2018-05-24T03:29:46.417Z,14.41
2018-05-24T03:30:46.536Z,14.40
2018-05-24T03:31:46.613Z,14.37
2018-05-24T03:32:46.237Z,14.37
2018-05-24T03:33:57.378Z,14.37
2018-05-24T03:34:46.289Z,14.40
2018-05-24T03:35:46.733Z,14.41
2018-05-24T03:36:45.274Z,14.43
2018-05-24T03:37:46.132Z,14.45
2018-05-24T03:39:08.361Z,14.45
2018-05-24T03:40:08.956Z,14.45
2018-05-24T03:41:08.852Z,14.48
2018-05-24T03:42:08.538Z,14.50
2018-05-24T03:43:31.838Z,14.51
2018-05-24T03:44:32.417Z,14.53
2018-05-24T03:45:31.939Z,14.53
2018-05-24T03:46:42.803Z,14.54
2018-05-24T03:47:32.593Z,14.55
2018-05-24T03:48:32.053Z,14.55
2018-05-24T03:49:53.725Z,14.54
2018-05-24T03:50:54.494Z,14.58
2018-05-24T03:51:54.430Z,14.59
2018-05-24T03:52:54.179Z,14.58
2018-05-24T03:53:54.095Z,14.58
2018-05-24T03:55:16.228Z,14.60
2018-05-24T03:56:16.619Z,14.62
2018-05-24T03:57:15.410Z,14.59
2018-05-24T03:58:17.686Z,14.60
2018-05-24T03:59:17.517Z,14.62
2018-05-24T04:00:16.487Z,14.60
2018-05-24T04:01:37.839Z,14.59
2018-05-24T04:02:40.053Z,14.58
2018-05-24T04:03:38.522Z,14.59
2018-05-24T04:04:59.797Z,14.60
2018-05-24T04:06:00.903Z,14.66
2018-05-24T04:07:00.166Z,14.66
2018-05-24T04:07:59.799Z,14.68
2018-05-24T04:09:21.778Z,14.69
2018-05-24T04:10:21.655Z,14.70
2018-05-24T04:11:22.420Z,14.73
2018-05-24T04:12:44.094Z,14.78
2018-05-24T04:13:44.543Z,14.78
2018-05-24T04:15:05.821Z,14.79
2018-05-24T04:16:06.625Z,14.77
2018-05-24T04:17:06.161Z,14.77
2018-05-24T04:18:50.409Z,14.78
2018-05-24T04:19:50.049Z,14.79
2018-05-24T04:20:49.733Z,14.81
2018-05-24T04:21:50.364Z,14.79
2018-05-24T04:22:49.999Z,14.81
2018-05-24T04:23:49.411Z,14.82
2018-05-24T04:24:50.881Z,14.81
2018-05-24T04:25:49.573Z,14.81
2018-05-24T04:26:50.042Z,14.84
2018-05-24T04:27:49.523Z,14.86
2018-05-24T04:28:51.019Z,14.89
2018-05-24T04:29:49.842Z,14.94
2018-05-24T04:30:49.775Z,15.02
2018-05-24T04:32:12.193Z,15.09
2018-05-24T04:33:34.229Z,15.15
2018-05-24T04:34:35.538Z,15.27
2018-05-24T04:35:56.615Z,15.31
2018-05-24T04:36:57.488Z,15.35
2018-05-24T04:37:57.211Z,15.36
2018-05-24T04:38:56.959Z,15.40
2018-05-24T04:40:21.059Z,15.47
2018-05-24T04:41:20.829Z,15.52
2018-05-24T04:42:21.389Z,15.61
2018-05-24T04:43:20.328Z,15.67
2018-05-24T04:44:20.336Z,15.72
2018-05-24T04:45:20.899Z,15.76
2018-05-24T04:46:46.005Z,15.84
2018-05-24T04:47:42.636Z,15.90
2018-05-24T04:48:42.272Z,15.92
2018-05-24T04:50:26.631Z,15.91
2018-05-24T04:51:27.147Z,15.95
2018-05-24T04:52:26.716Z,16.02
2018-05-24T04:53:27.466Z,16.05
2018-05-24T04:54:28.110Z,16.08
2018-05-24T04:55:27.368Z,16.15
2018-05-24T04:56:27.273Z,16.20
2018-05-24T04:57:26.932Z,16.12
2018-05-24T04:58:26.887Z,16.04
2018-05-24T04:59:27.410Z,16.01
2018-05-24T05:00:27.679Z,16.02
2018-05-24T05:01:27.287Z,16.05
2018-05-24T05:02:50.673Z,16.05
2018-05-24T05:03:49.130Z,16.12
2018-05-24T05:04:49.030Z,16.02
2018-05-24T05:05:49.306Z,15.88
2018-05-24T05:06:49.360Z,15.76
2018-05-24T05:07:50.085Z,15.76
2018-05-24T05:08:48.898Z,15.79
2018-05-24T05:09:48.842Z,15.91
2018-05-24T05:11:31.995Z,15.97
2018-05-24T05:12:31.583Z,15.92
2018-05-24T05:13:32.219Z,15.90
2018-05-24T05:14:55.799Z,15.91
2018-05-24T05:15:57.275Z,15.90
2018-05-24T05:16:56.710Z,15.95
2018-05-24T05:17:56.801Z,16.02
2018-05-24T05:19:17.907Z,16.05
2018-05-24T05:20:18.526Z,16.09
2018-05-24T05:21:18.937Z,16.20
2018-05-24T05:22:18.522Z,16.29
2018-05-24T05:24:02.559Z,16.29
2018-05-24T05:25:03.419Z,16.23
2018-05-24T05:26:03.039Z,16.28
2018-05-24T05:27:02.711Z,16.39
2018-05-24T05:28:02.461Z,16.54
2018-05-24T05:29:03.406Z,16.69
2018-05-24T05:30:24.729Z,16.75
2018-05-24T05:31:47.897Z,16.81
2018-05-24T05:32:47.931Z,16.83
2018-05-24T05:33:48.008Z,16.83
2018-05-24T05:35:09.671Z,16.83
2018-05-24T05:36:09.512Z,16.83
2018-05-24T05:37:10.237Z,16.90
2018-05-24T05:38:10.187Z,17.09
2018-05-24T05:39:31.968Z,17.30
2018-05-24T05:41:15.915Z,17.48
2018-05-24T05:42:38.205Z,17.70
2018-05-24T05:43:39.063Z,17.82
2018-05-24T05:44:38.838Z,18.01
2018-05-24T05:45:38.906Z,18.13
2018-05-24T05:46:38.908Z,18.31
2018-05-24T05:47:38.420Z,18.45
2018-05-24T05:48:38.107Z,18.44
2018-05-24T05:49:38.101Z,18.70
2018-05-24T05:50:38.780Z,18.89
2018-05-24T05:51:38.676Z,18.84
2018-05-24T05:52:38.420Z,18.52
2018-05-24T05:53:38.558Z,18.22
2018-05-24T05:54:39.046Z,17.87
2018-05-24T05:55:38.546Z,17.67
2018-05-24T05:56:38.230Z,17.46
2018-05-24T05:57:38.638Z,17.44
2018-05-24T05:58:38.295Z,17.41
2018-05-24T05:59:38.253Z,17.27
2018-05-24T06:00:38.656Z,17.38
2018-05-24T06:02:00.261Z,17.59
2018-05-24T06:03:00.787Z,17.86
2018-05-24T06:04:01.018Z,18.00
2018-05-24T06:05:00.897Z,18.11
2018-05-24T06:06:00.411Z,18.03
2018-05-24T06:07:01.140Z,18.01
2018-05-24T06:08:01.463Z,18.05
2018-05-24T06:09:02.052Z,18.13
2018-05-24T06:10:01.039Z,18.33
2018-05-24T06:11:22.505Z,18.71
2018-05-24T06:12:45.239Z,18.84
2018-05-24T06:13:46.050Z,19.09
2018-05-24T06:14:45.749Z,19.45
2018-05-24T06:15:46.230Z,19.70
2018-05-24T06:16:46.820Z,19.70
2018-05-24T06:17:45.552Z,20.16
2018-05-24T06:18:45.195Z,20.37
2018-05-24T06:19:46.280Z,20.14
2018-05-24T06:20:46.111Z,19.96
2018-05-24T06:21:46.007Z,19.92
2018-05-24T06:22:45.604Z,19.69
2018-05-24T06:23:46.073Z,19.77
2018-05-24T06:24:45.574Z,20.24
2018-05-24T06:25:45.097Z,20.70
2018-05-24T06:26:45.707Z,20.96
2018-05-24T06:27:46.367Z,21.29
2018-05-24T06:29:06.547Z,21.69
2018-05-24T06:30:08.184Z,21.91
2018-05-24T06:31:07.065Z,21.89
2018-05-24T06:32:06.853Z,21.54
2018-05-24T06:33:07.344Z,20.99
2018-05-24T06:34:28.336Z,20.85
2018-05-24T06:35:29.310Z,20.62
2018-05-24T06:36:29.183Z,20.26
2018-05-24T06:37:29.062Z,19.99
2018-05-24T06:38:28.881Z,19.73
2018-05-24T06:39:29.344Z,19.58
2018-05-24T06:40:28.966Z,19.79
2018-05-24T06:41:28.587Z,20.50
2018-05-24T06:42:29.405Z,20.92
2018-05-24T06:43:29.108Z,21.45
2018-05-24T06:44:29.726Z,21.85
2018-05-24T06:45:51.411Z,21.87
2018-05-24T06:46:52.298Z,21.89
2018-05-24T06:47:52.450Z,21.89
2018-05-24T06:48:52.136Z,22.02
2018-05-24T06:49:51.801Z,22.20
2018-05-24T06:50:51.811Z,22.33
2018-05-24T06:51:52.257Z,22.55
2018-05-24T06:52:52.097Z,22.98
2018-05-24T06:53:52.071Z,23.34
2018-05-24T06:54:51.856Z,23.58
2018-05-24T06:55:51.886Z,23.78
2018-05-24T06:56:51.563Z,23.47
2018-05-24T06:57:52.573Z,23.24
2018-05-24T06:58:52.378Z,23.31
2018-05-24T06:59:52.286Z,23.50
2018-05-24T07:00:52.143Z,23.41
2018-05-24T07:01:52.082Z,23.47
2018-05-24T07:03:16.125Z,23.65
2018-05-24T07:04:38.557Z,23.74
2018-05-24T07:05:38.357Z,24.03
2018-05-24T07:06:37.891Z,24.17
2018-05-24T07:07:38.653Z,24.05
2018-05-24T07:08:38.509Z,24.18
2018-05-24T07:09:38.242Z,24.29
2018-05-24T07:10:38.187Z,24.38
2018-05-24T07:11:59.421Z,24.91
2018-05-24T07:13:21.277Z,25.18
2018-05-24T07:14:21.494Z,25.06
2018-05-24T07:15:21.419Z,25.13
2018-05-24T07:16:21.370Z,25.26
2018-05-24T07:17:21.374Z,25.55
2018-05-24T07:18:21.413Z,25.75
2018-05-24T07:19:21.279Z,25.48
2018-05-24T07:20:21.424Z,25.13
2018-05-24T07:21:21.432Z,24.98
2018-05-24T07:22:20.965Z,25.28
2018-05-24T07:23:21.702Z,25.40
2018-05-24T07:24:21.828Z,25.88
2018-05-24T07:25:21.700Z,26.16
2018-05-24T07:26:21.519Z,26.36
2018-05-24T07:27:21.122Z,26.31
2018-05-24T07:28:22.278Z,26.23
2018-05-24T07:29:43.143Z,25.95
2018-05-24T07:30:43.980Z,25.85
2018-05-24T07:31:43.635Z,25.80
2018-05-24T07:32:43.222Z,25.83
2018-05-24T07:33:43.779Z,25.84
2018-05-24T07:34:43.403Z,26.02
2018-05-24T07:36:05.411Z,25.81
2018-05-24T07:37:05.824Z,25.87
2018-05-24T07:38:05.682Z,26.15
2018-05-24T07:39:28.028Z,26.18
2018-05-24T07:40:50.054Z,25.95
2018-05-24T07:42:54.592Z,26.10
2018-05-24T07:43:55.340Z,26.29
2018-05-24T07:44:55.741Z,26.45
2018-05-24T07:45:55.556Z,26.02
2018-05-24T07:46:55.288Z,25.72
2018-05-24T07:47:55.144Z,25.77
2018-05-24T07:48:54.928Z,25.77
2018-05-24T07:49:55.005Z,25.60
2018-05-24T07:50:55.898Z,25.29
2018-05-24T07:51:55.836Z,25.17
2018-05-24T07:52:55.634Z,25.59
2018-05-24T07:53:55.645Z,26.06
2018-05-24T07:54:55.538Z,26.29
2018-05-24T07:55:55.759Z,26.45
2018-05-24T07:56:55.596Z,26.70
2018-05-24T07:57:56.691Z,27.00
2018-05-24T07:58:55.712Z,27.35
2018-05-24T08:00:16.728Z,27.92
2018-05-24T08:01:39.865Z,28.30
2018-05-24T08:02:41.024Z,27.96
2018-05-24T08:03:42.059Z,27.85
2018-05-24T08:04:40.725Z,28.04
2018-05-24T08:06:01.501Z,27.70
2018-05-24T08:07:02.282Z,27.44
2018-05-24T08:08:02.086Z,27.27
2018-05-24T08:09:03.189Z,27.02
2018-05-24T08:10:02.148Z,26.53
2018-05-24T08:11:23.402Z,26.07
2018-05-24T08:12:24.374Z,26.03
2018-05-24T08:13:24.360Z,25.78
2018-05-24T08:14:24.057Z,25.85
2018-05-24T08:15:23.878Z,26.51
2018-05-24T08:16:23.386Z,26.83
2018-05-24T08:17:23.912Z,27.12
2018-05-24T08:18:23.588Z,27.08
2018-05-24T08:19:23.530Z,27.12
2018-05-24T08:20:23.604Z,26.81
2018-05-24T08:21:24.533Z,26.58
2018-05-24T08:22:24.335Z,26.37
2018-05-24T08:23:24.202Z,26.18
2018-05-24T08:24:48.855Z,26.65
2018-05-24T08:25:49.752Z,26.83
2018-05-24T08:26:50.166Z,27.30
2018-05-24T08:27:48.850Z,27.85
2018-05-24T08:28:48.471Z,28.10
2018-05-24T08:29:49.073Z,28.10
2018-05-24T08:30:48.726Z,28.17
2018-05-24T08:31:49.383Z,28.33
2018-05-24T08:32:49.175Z,28.20
2018-05-24T08:33:48.945Z,28.17
2018-05-24T08:34:48.914Z,28.19
2018-05-24T08:35:48.902Z,27.86
2018-05-24T08:37:34.651Z,28.26
2018-05-24T08:38:36.392Z,28.20
2018-05-24T08:39:35.475Z,27.82
2018-05-24T08:40:35.809Z,27.59
2018-05-24T08:41:35.900Z,27.40
2018-05-24T08:42:59.186Z,27.39
2018-05-24T08:43:58.876Z,27.47
2018-05-24T08:44:58.893Z,27.47
2018-05-24T08:45:58.785Z,27.12
2018-05-24T08:46:58.600Z,27.15
2018-05-24T08:48:21.584Z,27.65
2018-05-24T08:49:21.441Z,27.96
2018-05-24T08:50:44.523Z,28.20
2018-05-24T08:51:45.747Z,28.25
2018-05-24T08:52:44.406Z,28.02
2018-05-24T08:53:45.139Z,28.05
2018-05-24T08:54:45.163Z,27.87
2018-05-24T08:56:07.024Z,28.08
2018-05-24T08:57:06.752Z,28.14
2018-05-24T08:58:27.988Z,28.49
2018-05-24T08:59:27.713Z,28.60
2018-05-24T09:00:28.388Z,28.98
2018-05-24T09:01:28.084Z,29.10
2018-05-24T09:02:29.041Z,29.05
2018-05-24T09:03:28.037Z,29.08
2018-05-24T09:04:28.057Z,29.24
2018-05-24T09:05:28.127Z,29.41
2018-05-24T09:06:28.305Z,29.54
2018-05-24T09:07:29.764Z,28.98
2018-05-24T09:08:29.074Z,28.69
2018-05-24T09:09:27.584Z,28.49
2018-05-24T09:10:29.316Z,28.29
2018-05-24T09:11:28.386Z,27.83
2018-05-24T09:12:27.966Z,27.14
2018-05-24T09:13:27.731Z,26.92
2018-05-24T09:14:28.711Z,26.80
2018-05-24T09:15:27.970Z,26.23
2018-05-24T09:16:49.445Z,26.25
2018-05-24T09:17:49.901Z,26.37
2018-05-24T09:18:49.937Z,26.25
2018-05-24T09:19:49.486Z,26.13
2018-05-24T09:20:50.061Z,26.07
2018-05-24T09:21:50.354Z,25.90
2018-05-24T09:22:50.704Z,25.72
2018-05-24T09:24:11.431Z,25.41
2018-05-24T09:25:12.726Z,25.22
2018-05-24T09:26:12.435Z,25.10
2018-05-24T09:27:12.022Z,24.93
2018-05-24T09:28:12.280Z,24.77
2018-05-24T09:29:11.896Z,24.39
2018-05-24T09:30:33.405Z,24.10
2018-05-24T09:31:34.170Z,24.01
2018-05-24T09:32:55.358Z,23.96
2018-05-24T09:33:56.324Z,24.05
2018-05-24T09:34:57.247Z,24.16
2018-05-24T09:35:56.027Z,24.38
2018-05-24T09:37:20.299Z,24.53
2018-05-24T09:38:21.280Z,24.63
2018-05-24T09:39:43.658Z,24.88
2018-05-24T09:40:44.129Z,24.98
2018-05-24T09:41:44.168Z,25.26
2018-05-24T09:42:44.144Z,25.35
2018-05-24T09:43:44.660Z,25.44
2018-05-24T09:45:49.536Z,26.37
2018-05-24T09:46:49.644Z,26.58
2018-05-24T09:47:49.241Z,26.36
2018-05-24T09:48:50.132Z,26.00
2018-05-24T09:49:49.820Z,26.00
2018-05-24T09:50:49.497Z,25.98
2018-05-24T09:51:50.570Z,25.81
2018-05-24T09:52:49.224Z,25.54
2018-05-24T09:54:12.420Z,25.48
2018-05-24T09:55:35.919Z,25.06
2018-05-24T09:56:36.474Z,24.95
2018-05-24T09:57:36.170Z,24.86
2018-05-24T09:58:36.286Z,24.91
2018-05-24T09:59:37.481Z,24.96
2018-05-24T10:00:36.353Z,25.04
2018-05-24T10:01:35.985Z,25.08
2018-05-24T10:02:36.671Z,25.13
2018-05-24T10:03:36.456Z,25.08
2018-05-24T10:04:36.372Z,24.98
2018-05-24T10:06:19.624Z,24.89
2018-05-24T10:07:20.844Z,24.76
2018-05-24T10:08:20.748Z,24.68
2018-05-24T10:09:20.449Z,24.51
2018-05-24T10:10:20.218Z,24.48
2018-05-24T10:11:20.872Z,24.28
2018-05-24T10:12:20.556Z,24.16
2018-05-24T10:13:20.505Z,23.88
2018-05-24T10:14:20.164Z,23.76
2018-05-24T10:15:19.751Z,23.56
2018-05-24T10:16:21.342Z,23.40
2018-05-24T10:17:20.432Z,23.20
2018-05-24T10:18:21.235Z,23.08
2018-05-24T10:19:19.998Z,22.90
2018-05-24T10:20:19.992Z,22.93
2018-05-24T10:21:20.972Z,22.85
2018-05-24T10:22:42.083Z,22.76
2018-05-24T10:23:43.402Z,22.75
2018-05-24T10:24:42.450Z,22.75
2018-05-24T10:25:42.404Z,22.76
2018-05-24T10:26:42.864Z,22.63
2018-05-24T10:27:42.493Z,22.63
2018-05-24T10:28:42.373Z,22.48
2018-05-24T10:29:42.143Z,22.45
2018-05-24T10:30:42.851Z,22.43
2018-05-24T10:31:42.740Z,22.35
2018-05-24T10:33:04.053Z,22.29
2018-05-24T10:34:04.063Z,22.29
2018-05-24T10:35:03.735Z,22.30
2018-05-24T10:36:04.616Z,22.26
2018-05-24T10:37:04.206Z,22.18
2018-05-24T10:38:04.224Z,22.15
2018-05-24T10:39:04.062Z,22.14
2018-05-24T10:40:03.812Z,22.10
2018-05-24T10:41:04.453Z,21.98
2018-05-24T10:42:04.156Z,21.96
2018-05-24T10:43:03.818Z,21.99
2018-05-24T10:44:04.856Z,22.07
2018-05-24T10:45:04.787Z,22.10
2018-05-24T10:46:04.489Z,22.11
2018-05-24T10:47:04.394Z,21.96
2018-05-24T10:48:05.125Z,21.93
2018-05-24T10:49:03.887Z,21.87
2018-05-24T10:50:26.120Z,21.95
2018-05-24T10:51:26.711Z,21.95
2018-05-24T10:52:48.142Z,21.98
2018-05-24T10:53:48.553Z,22.08
2018-05-24T10:54:48.239Z,22.10
2018-05-24T10:55:48.266Z,22.08
2018-05-24T10:56:48.302Z,22.10
2018-05-24T10:57:48.712Z,22.08
2018-05-24T10:59:10.374Z,22.06
2018-05-24T11:00:11.094Z,22.08
2018-05-24T11:01:53.643Z,22.15
2018-05-24T11:02:54.508Z,22.18
2018-05-24T11:03:54.055Z,22.23
2018-05-24T11:04:53.777Z,22.26
2018-05-24T11:05:55.471Z,22.33
2018-05-24T11:06:54.130Z,22.41
2018-05-24T11:07:53.917Z,22.47
2018-05-24T11:08:53.818Z,22.59
2018-05-24T11:09:55.922Z,22.72
2018-05-24T11:11:36.672Z,22.88
2018-05-24T11:13:21.234Z,22.80
2018-05-24T11:14:22.873Z,22.73
2018-05-24T11:15:21.818Z,22.73
2018-05-24T11:16:21.923Z,22.78
2018-05-24T11:17:21.690Z,22.81
2018-05-24T11:18:21.424Z,22.80
2018-05-24T11:19:21.145Z,23.05
2018-05-24T11:20:21.110Z,23.41
2018-05-24T11:22:06.622Z,23.84
2018-05-24T11:23:07.282Z,24.01
2018-05-24T11:24:07.116Z,24.21
2018-05-24T11:25:07.733Z,24.53
2018-05-24T11:26:07.371Z,24.40
2018-05-24T11:27:07.298Z,24.43
2018-05-24T11:28:07.228Z,24.42
2018-05-24T11:29:06.842Z,24.40
2018-05-24T11:30:06.775Z,24.24
2018-05-24T11:31:32.501Z,24.20
2018-05-24T11:32:30.492Z,24.42
2018-05-24T11:33:30.399Z,24.45
2018-05-24T11:34:30.532Z,24.58
2018-05-24T11:35:30.530Z,24.54
2018-05-24T11:36:30.019Z,24.55
2018-05-24T11:37:29.832Z,24.74
2018-05-24T11:38:29.451Z,25.03
2018-05-24T11:39:30.952Z,25.23
2018-05-24T11:40:29.368Z,25.33
2018-05-24T11:41:30.080Z,25.33
2018-05-24T11:42:29.710Z,25.36
2018-05-24T11:43:31.810Z,25.35
2018-05-24T11:45:14.252Z,25.25
2018-05-24T11:46:14.995Z,25.29
2018-05-24T11:47:36.241Z,25.46
2018-05-24T11:48:36.133Z,25.48
2018-05-24T11:49:36.140Z,25.26
2018-05-24T11:50:36.115Z,25.31
2018-05-24T11:51:36.734Z,25.28
2018-05-24T11:52:37.586Z,25.32
2018-05-24T11:53:36.646Z,25.31
2018-05-24T11:54:36.448Z,25.25
2018-05-24T11:55:36.391Z,25.31
2018-05-24T11:56:36.289Z,25.28
2018-05-24T11:57:36.374Z,25.17
2018-05-24T11:58:35.894Z,25.22
2018-05-24T11:59:36.496Z,25.11
2018-05-24T12:00:36.488Z,25.21
2018-05-24T12:01:37.106Z,25.21
2018-05-24T12:02:35.753Z,25.13
2018-05-24T12:03:37.333Z,24.91
2018-05-24T12:04:36.413Z,24.86
2018-05-24T12:05:36.315Z,25.01
2018-05-24T12:06:36.039Z,24.91
2018-05-24T12:07:36.058Z,25.03
2018-05-24T12:08:35.972Z,25.01
2018-05-24T12:09:35.938Z,24.88
2018-05-24T12:10:36.757Z,24.70
2018-05-24T12:11:36.733Z,24.65
2018-05-24T12:12:36.600Z,24.57
2018-05-24T12:13:36.104Z,24.30
2018-05-24T12:14:36.475Z,24.14
2018-05-24T12:15:36.525Z,23.93
2018-05-24T12:16:36.599Z,23.81
2018-05-24T12:17:36.302Z,23.68
2018-05-24T12:18:36.270Z,23.47
2018-05-24T12:19:36.076Z,23.36
2018-05-24T12:20:57.400Z,23.24
2018-05-24T12:21:58.408Z,23.17
2018-05-24T12:23:06.632Z,23.06
2018-05-24T12:23:58.255Z,23.02
2018-05-24T12:24:58.016Z,23.00
2018-05-24T12:25:57.675Z,22.99
2018-05-24T12:26:58.136Z,22.90
2018-05-24T12:27:57.677Z,22.78
2018-05-24T12:28:57.533Z,22.75
2018-05-24T12:29:57.572Z,22.78
2018-05-24T12:30:58.267Z,22.83
2018-05-24T12:31:58.232Z,22.80
2018-05-24T12:32:58.790Z,22.90
2018-05-24T12:34:19.889Z,23.02
2018-05-24T12:35:41.268Z,23.09
2018-05-24T12:36:41.984Z,22.98
2018-05-24T12:37:41.629Z,23.10
2018-05-24T12:38:43.125Z,23.24
2018-05-24T12:39:41.880Z,23.28
2018-05-24T12:40:41.733Z,23.46
2018-05-24T12:41:41.300Z,23.50
2018-05-24T12:42:42.094Z,23.59
2018-05-24T12:43:42.072Z,23.69
2018-05-24T12:44:41.708Z,23.66
2018-05-24T12:45:41.443Z,23.73
2018-05-24T12:46:42.036Z,23.69
2018-05-24T12:47:41.733Z,23.58
2018-05-24T12:48:41.636Z,23.55
2018-05-24T12:50:03.005Z,23.24
2018-05-24T12:51:05.989Z,23.09
2018-05-24T12:52:05.186Z,22.96
2018-05-24T12:53:03.324Z,22.88
2018-05-24T12:54:03.095Z,22.80
2018-05-24T12:55:27.131Z,22.73
2018-05-24T12:56:49.040Z,22.72
2018-05-24T12:58:11.111Z,22.54
2018-05-24T12:59:10.999Z,22.32
2018-05-24T13:00:32.009Z,21.80
2018-05-24T13:01:33.177Z,21.62
2018-05-24T13:02:33.008Z,21.54
2018-05-24T13:03:33.912Z,21.60
2018-05-24T13:04:32.920Z,21.61
2018-05-24T13:05:32.814Z,21.55
2018-05-24T13:06:32.522Z,21.55
2018-05-24T13:07:32.490Z,21.55
2018-05-24T13:08:32.056Z,21.43
2018-05-24T13:10:17.289Z,21.40
2018-05-24T13:11:17.599Z,21.30
2018-05-24T13:12:17.451Z,21.12
2018-05-24T13:13:17.116Z,20.95
2018-05-24T13:14:39.574Z,20.77
2018-05-24T13:15:39.713Z,20.67
2018-05-24T13:16:39.461Z,20.65
2018-05-24T13:17:40.800Z,20.52
2018-05-24T13:18:40.361Z,20.34
2018-05-24T13:19:40.499Z,20.19
2018-05-24T13:20:40.712Z,20.00
2018-05-24T13:21:39.748Z,19.85
2018-05-24T13:22:39.635Z,19.81
2018-05-24T13:24:03.105Z,19.64
2018-05-24T13:25:03.912Z,19.62
2018-05-24T13:26:02.749Z,19.58
2018-05-24T13:27:02.399Z,19.59
2018-05-24T13:28:03.603Z,19.67
2018-05-24T13:29:03.499Z,19.63
2018-05-24T13:30:03.963Z,19.63
2018-05-24T13:31:03.753Z,19.59
2018-05-24T13:32:03.248Z,19.66
2018-05-24T13:33:03.008Z,19.71
2018-05-24T13:34:03.052Z,19.82
2018-05-24T13:35:02.998Z,19.94
2018-05-24T13:36:03.268Z,19.94
2018-05-24T13:37:03.001Z,20.00
2018-05-24T13:38:04.143Z,20.06
2018-05-24T13:39:05.964Z,20.19
2018-05-24T13:40:03.031Z,20.37
2018-05-24T13:41:03.660Z,20.48
2018-05-24T13:42:03.590Z,20.56
2018-05-24T13:43:03.815Z,20.69
2018-05-24T13:44:03.098Z,20.77
2018-05-24T13:45:03.677Z,20.77
2018-05-24T13:46:04.030Z,20.72
2018-05-24T13:47:03.202Z,20.77